Time;durP1;ratioP1;P1;durP2;ratioP2;P2;SDS_P1;SDS_P2;PMS_P1;PMS_P2;Temp;Humidity;BMP_temperature;BMP_pressure;BME280_temperature;BME280_humidity;BME280_pressure;Samples;Min_cycle;Max_cycle;Signal;HPM_P1;HPM_P2
2022/03/14 00:01:18;;;;;;;9.57;6.03;;;18.50;35.00;17.50;101387.00;;;;5047932;28;20040;-65
2022/03/14 00:04:04;;;;;;;6.82;5.38;;;18.50;34.90;17.50;101397.00;;;;5041795;28;20047;-65
2022/03/14 00:06:51;;;;;;;8.88;6.45;;;18.60;34.90;17.50;101394.00;;;;5050638;28;20106;-66
2022/03/14 00:09:37;;;;;;;8.70;6.15;;;18.50;34.90;17.50;101401.00;;;;5051607;28;20041;-65
2022/03/14 00:12:25;;;;;;;8.52;5.78;;;18.50;35.00;17.50;101409.00;;;;5057279;28;20033;-65
2022/03/14 00:15:11;;;;;;;;;;;18.50;35.00;17.50;101412.00;;;;5056315;28;20402;-65
2022/03/14 00:18:00;;;;;;;10.02;6.43;;;18.50;35.70;17.50;101416.00;;;;5056064;28;20323;-65
2022/03/14 00:20:47;;;;;;;7.97;6.25;;;18.50;34.90;17.50;101404.00;;;;5061262;28;20471;-66
2022/03/14 00:23:33;;;;;;;8.15;6.22;;;18.50;34.90;17.50;101422.00;;;;5051604;28;20099;-65
2022/03/14 00:26:21;;;;;;;8.88;6.70;;;18.50;35.00;17.50;101428.00;;;;5044969;28;20033;-65
2022/03/14 00:29:08;;;;;;;;;;;18.50;35.00;17.40;101418.00;;;;5065427;28;20475;-65
2022/03/14 00:31:54;;;;;;;9.00;6.55;;;18.60;35.10;17.40;101416.00;;;;5070077;28;19919;-66
2022/03/14 00:34:41;;;;;;;9.07;6.65;;;18.50;35.00;17.40;101421.00;;;;5064681;28;20387;-65
2022/03/14 00:37:27;;;;;;;11.05;6.55;;;18.50;35.10;17.40;101424.00;;;;5058140;28;20033;-65
2022/03/14 00:40:14;;;;;;;8.98;6.15;;;18.50;35.10;17.50;101432.00;;;;5061768;28;20029;-66
2022/03/14 00:43:03;;;;;;;8.27;6.68;;;18.50;35.20;17.40;101429.00;;;;5059966;28;20041;-66
2022/03/14 00:45:49;;;;;;;10.18;6.60;;;18.50;35.20;17.40;101430.00;;;;5057849;28;20037;-65
2022/03/14 00:48:36;;;;;;;7.40;5.68;;;18.50;35.20;17.50;101434.00;;;;5054109;28;20036;-65
2022/03/14 00:51:22;;;;;;;9.43;6.75;;;18.40;35.20;17.50;101430.00;;;;5059506;28;20376;-65
2022/03/14 00:54:09;;;;;;;8.98;6.63;;;18.50;35.20;17.50;101436.00;;;;5060397;28;20033;-65
2022/03/14 00:56:55;;;;;;;9.10;6.70;;;18.40;35.20;17.40;101431.00;;;;5046910;28;20083;-65
2022/03/14 00:59:42;;;;;;;8.40;6.32;;;18.40;35.20;17.50;101432.00;;;;5057998;28;20095;-65
2022/03/14 01:02:28;;;;;;;9.05;6.47;;;18.50;35.20;17.40;101430.00;;;;5059648;28;20040;-66
2022/03/14 01:05:14;;;;;;;9.35;6.30;;;18.40;35.20;17.50;101433.00;;;;5054606;28;20048;-66
2022/03/14 01:08:00;;;;;;;7.80;5.75;;;18.50;35.30;17.40;101439.00;;;;5061033;28;20445;-65
2022/03/14 01:10:48;;;;;;;9.30;6.28;;;18.50;35.30;17.40;101439.00;;;;5055197;28;20049;-65
2022/03/14 01:13:34;;;;;;;8.80;6.15;;;18.40;35.30;17.40;101441.00;;;;5063680;28;20046;-65
2022/03/14 01:16:20;;;;;;;7.93;6.10;;;18.40;36.00;17.40;101449.00;;;;5061691;28;20044;-65
2022/03/14 01:19:09;;;;;;;8.82;6.55;;;18.40;35.30;17.50;101450.00;;;;5059204;28;20048;-65
2022/03/14 01:21:55;;;;;;;9.82;6.38;;;18.40;35.40;17.40;101447.00;;;;5045854;28;20051;-66
2022/03/14 01:24:43;;;;;;;8.85;6.60;;;18.40;35.40;17.50;101450.00;;;;5057328;28;20037;-66
2022/03/14 01:27:29;;;;;;;8.48;6.57;;;18.40;35.40;17.40;101452.00;;;;5048662;28;20036;-65
2022/03/14 01:30:15;;;;;;;9.80;6.63;;;18.50;35.50;17.40;101450.00;;;;5061359;28;20463;-65
2022/03/14 01:33:01;;;;;;;9.55;6.53;;;18.40;35.40;17.50;101449.00;;;;5063041;28;20037;-65
2022/03/14 01:35:48;;;;;;;8.13;6.53;;;18.40;35.40;17.40;101455.00;;;;5042400;28;20490;-66
2022/03/14 01:38:34;;;;;;;9.70;6.90;;;18.40;35.40;17.40;101455.00;;;;5063822;28;20537;-65
2022/03/14 01:41:22;;;;;;;8.05;6.25;;;18.40;35.50;17.40;101456.00;;;;5059737;28;20036;-65
2022/03/14 01:44:08;;;;;;;8.68;5.97;;;18.40;35.50;17.40;101453.00;;;;5060452;28;20408;-65
2022/03/14 01:46:54;;;;;;;9.60;7.03;;;18.40;35.50;17.40;101461.00;;;;5075706;28;20047;-66
2022/03/14 01:49:45;;;;;;;8.75;6.05;;;18.40;35.50;17.40;101453.00;;;;5076537;28;20032;-65
2022/03/14 01:52:31;;;;;;;8.70;6.40;;;18.40;35.50;17.40;101455.00;;;;5061470;28;20111;-66
2022/03/14 01:55:18;;;;;;;9.30;6.65;;;18.40;35.50;17.40;101457.00;;;;5047768;28;20063;-66
2022/03/14 01:58:04;;;;;;;9.98;6.70;;;18.50;35.60;17.40;101467.00;;;;5043075;28;20041;-65
2022/03/14 02:00:51;;;;;;;9.38;6.47;;;18.40;35.60;17.40;101467.00;;;;5055727;28;20043;-65
2022/03/14 02:03:37;;;;;;;8.65;6.75;;;18.40;35.60;17.40;101460.00;;;;5055206;28;20057;-66
2022/03/14 02:06:23;;;;;;;7.70;6.18;;;18.40;35.60;17.40;101465.00;;;;5049064;28;20044;-66
2022/03/14 02:09:09;;;;;;;9.70;6.38;;;18.40;35.60;17.40;101472.00;;;;5064222;28;20048;-65
2022/03/14 02:11:56;;;;;;;8.85;6.63;;;18.40;35.60;17.40;101466.00;;;;5052280;28;20037;-65
2022/03/14 02:14:42;;;;;;;8.30;6.32;;;18.40;35.70;17.40;101474.00;;;;5062841;28;20063;-65
2022/03/14 02:17:28;;;;;;;9.82;6.95;;;18.40;35.60;17.40;101475.00;;;;5064114;28;20060;-65
2022/03/14 02:20:14;;;;;;;9.77;6.65;;;18.50;35.70;17.40;101475.00;;;;5061282;28;20115;-65
2022/03/14 02:23:00;;;;;;;9.02;6.75;;;18.30;35.60;17.40;101478.00;;;;5050532;28;20040;-65
2022/03/14 02:25:51;;;;;;;10.27;6.55;;;18.40;35.60;17.40;101484.00;;;;5070351;28;20040;-65
2022/03/14 02:28:37;;;;;;;9.68;7.13;;;18.40;35.70;17.40;101483.00;;;;5076398;28;20071;-65
2022/03/14 02:31:24;;;;;;;10.25;6.97;;;18.40;35.60;17.40;101487.00;;;;5074548;28;20051;-65
2022/03/14 02:34:10;;;;;;;10.07;6.57;;;18.50;35.70;17.40;101485.00;;;;5074462;28;20383;-65
2022/03/14 02:36:56;;;;;;;9.52;6.65;;;18.40;35.70;17.40;101493.00;;;;5073381;28;20043;-65
2022/03/14 02:39:42;;;;;;;8.45;6.40;;;18.40;35.90;17.40;101492.00;;;;5070250;28;20043;-65
2022/03/14 02:42:28;;;;;;;8.98;6.97;;;18.40;35.70;17.40;101499.00;;;;5083587;28;20493;-65
2022/03/14 02:45:14;;;;;;;9.35;7.22;;;18.40;35.70;17.40;101498.00;;;;5063439;28;20067;-65
2022/03/14 02:48:00;;;;;;;10.95;7.32;;;18.40;35.70;17.40;101506.00;;;;5071618;28;20048;-65
2022/03/14 02:50:49;;;;;;;8.82;6.13;;;18.40;35.70;17.40;101515.00;;;;5054044;28;20065;-66
2022/03/14 02:53:35;;;;;;;10.70;7.30;;;18.40;35.70;17.40;101512.00;;;;5046565;28;20406;-65
2022/03/14 02:56:21;;;;;;;8.73;6.68;;;18.40;35.70;17.40;101507.00;;;;5058389;28;20036;-65
2022/03/14 02:59:08;;;;;;;10.23;7.53;;;18.40;35.70;17.40;101506.00;;;;5035946;28;20455;-66
2022/03/14 03:01:54;;;;;;;8.50;6.80;;;18.40;35.70;17.40;101513.00;;;;5040304;28;20127;-65
2022/03/14 03:04:40;;;;;;;9.07;6.75;;;18.40;35.70;17.40;101525.00;;;;5052017;28;20127;-65
2022/03/14 03:07:26;;;;;;;7.97;6.55;;;18.40;35.80;17.40;101521.00;;;;5054090;28;20036;-65
2022/03/14 03:10:12;;;;;;;10.07;6.90;;;18.40;35.80;17.40;101525.00;;;;5045595;28;20107;-66
2022/03/14 03:12:58;;;;;;;9.07;6.95;;;18.40;35.80;17.40;101522.00;;;;5053024;28;20036;-65
2022/03/14 03:15:45;;;;;;;11.18;7.47;;;18.40;35.80;17.40;101527.00;;;;5055421;28;20541;-65
2022/03/14 03:18:31;;;;;;;9.23;6.82;;;18.40;35.80;17.40;101530.00;;;;5069752;28;20083;-66
2022/03/14 03:21:17;;;;;;;10.80;7.18;;;18.40;35.90;17.40;101541.00;;;;5058165;28;20072;-65
2022/03/14 03:24:07;;;;;;;9.45;6.97;;;18.40;35.90;17.40;101537.00;;;;5060125;28;20036;-65
2022/03/14 03:26:53;;;;;;;9.93;7.03;;;18.40;36.00;17.40;101553.00;;;;5058465;28;20111;-65
2022/03/14 03:29:39;;;;;;;10.77;6.97;;;18.40;36.00;17.40;101542.00;;;;5061663;28;20039;-66
2022/03/14 03:32:25;;;;;;;9.95;6.97;;;18.40;36.00;17.40;101541.00;;;;5057392;28;20445;-65
2022/03/14 03:35:11;;;;;;;8.82;6.45;;;18.40;36.10;17.40;101555.00;;;;5058282;28;20037;-66
2022/03/14 03:37:57;;;;;;;10.52;7.57;;;18.40;36.10;17.40;101556.00;;;;5043717;28;20048;-65
2022/03/14 03:40:43;;;;;;;9.65;7.10;;;18.40;36.10;17.40;101565.00;;;;5058807;28;20486;-65
2022/03/14 03:43:29;;;;;;;9.45;6.88;;;18.40;36.10;17.40;101563.00;;;;5067302;28;20048;-65
2022/03/14 03:46:16;;;;;;;9.82;7.68;;;18.40;36.20;17.40;101558.00;;;;5060843;28;20267;-65
2022/03/14 03:49:02;;;;;;;10.50;6.95;;;18.40;36.20;17.40;101562.00;;;;5043421;28;20116;-65
2022/03/14 03:51:48;;;;;;;9.85;6.57;;;18.40;36.20;17.40;101567.00;;;;5044039;28;20033;-66
2022/03/14 03:54:35;;;;;;;8.13;6.75;;;18.40;36.20;17.40;101572.00;;;;5057217;28;20102;-65
2022/03/14 03:57:21;;;;;;;10.00;7.22;;;18.30;36.20;17.40;101571.00;;;;5057630;28;20033;-65
2022/03/14 04:00:12;;;;;;;9.80;7.05;;;18.40;36.30;17.40;101581.00;;;;5059221;28;20056;-65
2022/03/14 04:02:58;;;;;;;10.60;7.10;;;18.40;36.40;17.40;101583.00;;;;5046990;28;20037;-65
2022/03/14 04:05:45;;;;;;;9.90;6.85;;;18.40;36.40;17.40;101595.00;;;;5049290;28;20041;-65
2022/03/14 04:08:32;;;;;;;8.63;6.88;;;18.40;36.40;17.40;101604.00;;;;5066754;28;20065;-65
2022/03/14 04:11:20;;;;;;;11.13;7.63;;;18.40;36.40;17.40;101602.00;;;;5062192;28;20094;-66
2022/03/14 04:14:09;;;;;;;10.10;7.88;;;18.40;36.40;17.40;101608.00;;;;5060721;28;20056;-66
2022/03/14 04:16:55;;;;;;;9.52;7.28;;;18.40;36.50;17.40;101606.00;;;;5059561;28;20071;-65
2022/03/14 04:19:41;;;;;;;9.00;7.20;;;18.30;36.50;17.40;101613.00;;;;5072891;28;20055;-66
2022/03/14 04:22:28;;;;;;;9.02;6.88;;;18.40;36.60;17.40;101620.00;;;;5048667;28;20111;-65
2022/03/14 04:25:14;;;;;;;8.90;6.88;;;18.30;36.60;17.40;101627.00;;;;5050825;28;20554;-65
2022/03/14 04:28:00;;;;;;;10.40;7.10;;;18.30;36.70;17.40;101634.00;;;;5066496;28;20032;-65
2022/03/14 04:30:46;;;;;;;8.00;6.32;;;18.30;36.70;17.40;101638.00;;;;5063893;28;20428;-65
2022/03/14 04:33:32;;;;;;;10.32;7.38;;;18.30;36.70;17.40;101642.00;;;;5072785;28;20465;-66
2022/03/14 04:36:18;;;;;;;9.75;7.10;;;18.30;36.80;17.40;101648.00;;;;5046596;28;20033;-66
2022/03/14 04:39:04;;;;;;;8.80;6.78;;;18.30;36.90;17.40;101645.00;;;;5047101;28;20316;-65
2022/03/14 04:41:51;;;;;;;9.10;6.88;;;18.30;36.90;17.30;101652.00;;;;5053634;28;20040;-65
2022/03/14 04:44:37;;;;;;;10.25;6.68;;;18.30;37.00;17.30;101659.00;;;;5063069;28;20452;-65
2022/03/14 04:47:25;;;;;;;9.45;7.85;;;18.30;37.00;17.30;101663.00;;;;5058004;28;20040;-65
2022/03/14 04:50:14;;;;;;;11.70;7.78;;;18.30;37.10;17.30;101663.00;;;;5059651;28;20037;-66
2022/03/14 04:53:00;;;;;;;8.15;6.80;;;18.30;37.10;17.30;101668.00;;;;5059809;28;20032;-66
2022/03/14 04:55:46;;;;;;;8.57;7.32;;;18.30;37.10;17.30;101680.00;;;;5053086;28;20304;-65
2022/03/14 04:58:32;;;;;;;9.20;6.97;;;18.30;37.20;17.30;101674.00;;;;5062734;28;20045;-66
2022/03/14 05:01:23;;;;;;;10.02;7.38;;;18.30;37.30;17.30;101683.00;;;;5059527;28;20032;-65
2022/03/14 05:04:09;;;;;;;9.80;7.25;;;18.30;37.30;17.30;101688.00;;;;5056384;28;20056;-65
2022/03/14 05:06:56;;;;;;;8.48;7.05;;;18.30;37.30;17.30;101688.00;;;;5055334;28;20063;-65
2022/03/14 05:09:42;;;;;;;9.65;7.13;;;18.30;37.40;17.30;101700.00;;;;5055324;28;20044;-66
2022/03/14 05:12:31;;;;;;;10.07;6.97;;;18.30;37.40;17.30;101702.00;;;;5058081;28;20037;-65
2022/03/14 05:15:18;;;;;;;8.32;6.82;;;18.30;37.60;17.30;101704.00;;;;5043339;28;20080;-65
2022/03/14 05:18:04;;;;;;;10.30;7.45;;;18.30;37.50;17.30;101707.00;;;;5059233;28;20044;-66
2022/03/14 05:20:50;;;;;;;9.02;7.13;;;18.30;37.60;17.30;101704.00;;;;5045717;28;20592;-66
2022/03/14 05:23:36;;;;;;;9.60;7.10;;;18.30;37.60;17.30;101709.00;;;;5050451;28;20036;-66
2022/03/14 05:26:22;;;;;;;10.63;7.22;;;18.20;37.60;17.30;101718.00;;;;5044289;28;20036;-65
2022/03/14 05:29:12;;;;;;;9.02;7.05;;;18.20;37.70;17.30;101725.00;;;;5061540;28;20052;-65
2022/03/14 05:31:58;;;;;;;10.18;7.10;;;18.20;37.80;17.30;101721.00;;;;5045379;28;20112;-65
2022/03/14 05:34:44;;;;;;;8.93;7.07;;;18.30;37.90;17.30;101731.00;;;;5064411;28;20426;-66
2022/03/14 05:37:30;;;;;;;9.02;6.88;;;18.30;37.90;17.30;101735.00;;;;5062321;28;20048;-65
2022/03/14 05:40:20;;;;;;;10.32;7.00;;;18.30;38.00;17.30;101741.00;;;;5057948;28;20071;-66
2022/03/14 05:43:07;;;;;;;10.15;7.40;;;18.20;38.00;17.30;101740.00;;;;5050448;28;20055;-65
2022/03/14 05:45:53;;;;;;;10.18;6.93;;;18.30;38.10;17.30;101747.00;;;;5048484;28;20037;-65
2022/03/14 05:48:39;;;;;;;9.65;6.85;;;18.20;38.10;17.30;101750.00;;;;5045152;28;20036;-65
2022/03/14 05:51:25;;;;;;;11.25;7.22;;;18.30;38.20;17.30;101758.00;;;;5043502;28;20041;-65
2022/03/14 05:54:11;;;;;;;8.90;6.70;;;18.20;38.20;17.30;101759.00;;;;5041231;28;20098;-65
2022/03/14 05:56:57;;;;;;;8.50;6.70;;;18.30;38.20;17.30;101757.00;;;;5056466;28;20043;-65
2022/03/14 05:59:44;;;;;;;9.57;7.13;;;18.20;38.30;17.30;101769.00;;;;5054824;28;20095;-65
2022/03/14 06:02:30;;;;;;;10.20;7.38;;;18.20;38.30;17.30;101762.00;;;;5062451;28;20076;-66
2022/03/14 06:05:18;;;;;;;10.23;7.10;;;18.30;38.40;17.30;101774.00;;;;5056847;28;20052;-66
2022/03/14 06:08:04;;;;;;;;;;;18.20;38.50;17.30;101770.00;;;;5028243;28;20094;-65
2022/03/14 06:10:50;;;;;;;10.93;7.38;;;18.30;38.10;17.30;101778.00;;;;5054795;28;19994;-65
2022/03/14 06:13:36;;;;;;;9.48;7.35;;;18.30;38.40;17.30;101780.00;;;;5060451;28;20031;-65
2022/03/14 06:16:22;;;;;;;11.10;7.32;;;18.30;38.60;17.30;101786.00;;;;5055471;28;20437;-65
2022/03/14 06:19:08;;;;;;;10.00;7.28;;;18.20;38.70;17.30;101789.00;;;;5056580;28;20044;-65
2022/03/14 06:21:54;;;;;;;11.18;7.90;;;18.20;38.70;17.30;101793.00;;;;5057763;28;20452;-66
2022/03/14 06:24:41;;;;;;;10.15;7.57;;;18.20;38.90;17.30;101801.00;;;;5051239;28;20462;-66
2022/03/14 06:27:27;;;;;;;11.02;7.50;;;18.20;39.10;17.20;101800.00;;;;5057783;28;20055;-65
2022/03/14 06:30:14;;;;;;;10.88;7.22;;;18.20;39.10;17.20;101806.00;;;;5054784;28;20051;-65
2022/03/14 06:33:00;;;;;;;10.05;7.35;;;18.20;39.20;17.20;101801.00;;;;5043932;28;20486;-65
2022/03/14 06:35:46;;;;;;;10.20;7.65;;;18.20;39.30;17.20;101815.00;;;;5058482;28;20044;-66
2022/03/14 06:38:33;;;;;;;8.93;7.32;;;18.20;39.50;17.20;101816.00;;;;5065680;28;20455;-66
2022/03/14 06:41:19;;;;;;;10.93;8.15;;;18.20;39.60;17.20;101818.00;;;;5047179;28;20036;-66
2022/03/14 06:44:06;;;;;;;10.50;7.50;;;18.20;39.80;17.20;101814.00;;;;5059284;28;20068;-65
2022/03/14 06:46:53;;;;;;;9.63;7.30;;;18.20;39.70;17.20;101819.00;;;;5057504;28;20048;-66
2022/03/14 06:49:42;;;;;;;11.27;7.57;;;18.20;39.70;17.20;101822.00;;;;5041431;28;20440;-66
2022/03/14 06:52:28;;;;;;;10.65;7.53;;;18.20;40.00;17.20;101822.00;;;;5056408;28;20652;-65
2022/03/14 06:55:15;;;;;;;9.18;7.18;;;18.20;40.00;17.20;101823.00;;;;5058182;28;20044;-65
2022/03/14 06:58:01;;;;;;;12.27;7.18;;;18.20;40.00;17.20;101821.00;;;;5056357;28;20071;-65
2022/03/14 07:00:47;;;;;;;8.48;6.50;;;18.20;40.10;17.20;101826.00;;;;5040534;28;20055;-66
2022/03/14 07:03:33;;;;;;;9.85;7.18;;;18.20;40.10;17.20;101831.00;;;;5060068;28;20051;-65
2022/03/14 07:06:19;;;;;;;9.30;7.07;;;18.20;40.10;17.20;101827.00;;;;5056750;28;20040;-65
2022/03/14 07:09:07;;;;;;;9.05;6.82;;;18.20;40.20;17.20;101837.00;;;;5060677;28;20063;-65
2022/03/14 07:11:53;;;;;;;7.45;6.03;;;18.20;40.20;17.20;101835.00;;;;5043720;28;20047;-65
2022/03/14 07:14:40;;;;;;;8.65;6.95;;;18.20;40.20;17.20;101836.00;;;;5057144;28;20040;-65
2022/03/14 07:17:26;;;;;;;8.23;6.43;;;18.20;40.30;17.20;101833.00;;;;5043833;28;20570;-66
2022/03/14 07:20:12;;;;;;;7.32;5.65;;;18.20;40.30;17.20;101835.00;;;;5063609;28;20036;-65
2022/03/14 07:23:00;;;;;;;7.22;5.85;;;18.20;40.30;17.20;101841.00;;;;5059853;28;20645;-65
2022/03/14 07:25:46;;;;;;;9.40;6.53;;;18.20;40.30;17.20;101838.00;;;;5040810;28;20045;-66
2022/03/14 07:28:33;;;;;;;9.20;6.10;;;18.20;40.30;17.20;101844.00;;;;5061848;28;20433;-66
2022/03/14 07:31:20;;;;;;;9.93;6.38;;;18.20;40.40;17.20;101838.00;;;;5049524;28;20033;-65
2022/03/14 07:34:06;;;;;;;7.90;5.88;;;18.20;40.40;17.20;101843.00;;;;5056060;28;20247;-66
2022/03/14 07:36:52;;;;;;;7.93;5.88;;;18.30;40.50;17.30;101842.00;;;;5054246;28;20044;-65
2022/03/14 07:39:38;;;;;;;8.40;6.18;;;18.20;40.40;17.20;101842.00;;;;5053676;28;20044;-65
2022/03/14 07:42:24;;;;;;;7.43;5.45;;;18.30;40.60;17.30;101842.00;;;;5049862;28;20052;-66
2022/03/14 07:45:12;;;;;;;9.00;6.55;;;18.20;40.50;17.30;101851.00;;;;5063402;28;20154;-66
2022/03/14 07:47:58;;;;;;;8.38;6.05;;;18.20;40.50;17.30;101848.00;;;;5057914;28;20544;-65
2022/03/14 07:50:44;;;;;;;7.55;5.40;;;18.20;40.50;17.30;101857.00;;;;5047801;28;20433;-65
2022/03/14 07:53:31;;;;;;;8.30;5.75;;;18.30;40.60;17.30;101851.00;;;;5065830;28;20449;-66
2022/03/14 07:56:17;;;;;;;8.90;6.35;;;18.30;40.60;17.30;101855.00;;;;5065816;28;20036;-65
2022/03/14 07:59:03;;;;;;;7.35;5.72;;;18.20;40.60;17.30;101859.00;;;;5063353;28;20051;-65
2022/03/14 08:01:49;;;;;;;7.10;5.30;;;18.20;40.60;17.30;101861.00;;;;5054312;28;20446;-66
2022/03/14 08:04:37;;;;;;;8.27;5.88;;;18.20;40.60;17.30;101865.00;;;;5069690;28;20044;-65
2022/03/14 08:07:23;;;;;;;6.80;5.05;;;18.20;40.70;17.30;101872.00;;;;5055717;28;20033;-66
2022/03/14 08:10:09;;;;;;;8.25;5.05;;;18.30;40.80;17.30;101875.00;;;;5066781;28;20036;-65
2022/03/14 08:12:57;;;;;;;6.13;4.80;;;18.20;40.80;17.30;101869.00;;;;5064327;28;20044;-65
2022/03/14 08:15:43;;;;;;;6.72;5.30;;;18.20;40.80;17.30;101882.00;;;;5051775;28;20048;-65
2022/03/14 08:18:29;;;;;;;6.75;5.00;;;18.20;40.90;17.30;101885.00;;;;5063401;28;20033;-66
2022/03/14 08:21:15;;;;;;;8.52;5.50;;;18.20;40.90;17.30;101880.00;;;;5063587;28;20045;-65
2022/03/14 08:24:01;;;;;;;6.60;5.10;;;18.20;41.00;17.30;101889.00;;;;5061749;28;20449;-66
2022/03/14 08:26:47;;;;;;;7.15;5.07;;;18.30;41.10;17.30;101896.00;;;;5058702;28;20037;-66
2022/03/14 08:29:33;;;;;;;7.15;5.43;;;18.20;41.10;17.30;101885.00;;;;5069874;28;20509;-65
2022/03/14 08:32:22;;;;;;;6.28;5.22;;;18.20;41.10;17.30;101880.00;;;;5058417;28;20392;-66
2022/03/14 08:35:09;;;;;;;5.57;4.50;;;18.20;41.20;17.30;101893.00;;;;5043753;28;20128;-65
2022/03/14 08:37:55;;;;;;;6.78;5.10;;;18.20;41.30;17.20;101900.00;;;;5045754;28;20045;-65
2022/03/14 08:40:42;;;;;;;6.63;4.57;;;18.20;41.30;17.30;101907.00;;;;5057351;28;20051;-65
2022/03/14 08:43:28;;;;;;;6.93;5.05;;;18.20;41.30;17.20;101905.00;;;;5063038;28;20128;-65
2022/03/14 08:46:15;;;;;;;5.20;4.55;;;18.20;41.40;17.20;101912.00;;;;5055892;28;20032;-65
2022/03/14 08:49:01;;;;;;;6.60;4.50;;;18.20;41.50;17.20;101912.00;;;;5062111;28;20111;-65
2022/03/14 08:51:47;;;;;;;7.03;4.85;;;18.20;41.60;17.20;101916.00;;;;5041303;28;20040;-66
2022/03/14 08:54:34;;;;;;;5.78;4.10;;;18.20;41.60;17.20;101921.00;;;;5054985;28;20371;-65
2022/03/14 08:57:20;;;;;;;7.35;4.78;;;18.20;41.60;17.30;101921.00;;;;5053530;28;20557;-65
2022/03/14 09:00:11;;;;;;;6.07;4.72;;;18.30;41.80;17.20;101923.00;;;;5054915;28;20049;-65
2022/03/14 09:02:57;;;;;;;7.13;4.38;;;18.20;41.70;17.20;101923.00;;;;5045976;28;20049;-65
2022/03/14 09:05:43;;;;;;;6.85;4.78;;;18.20;41.80;17.20;101924.00;;;;5046130;28;20041;-65
2022/03/14 09:08:29;;;;;;;6.78;5.10;;;18.20;41.90;17.20;101927.00;;;;5059890;28;20033;-65
2022/03/14 09:11:17;;;;;;;4.65;4.05;;;18.20;42.00;17.20;101930.00;;;;5061820;28;20044;-65
2022/03/14 09:14:03;;;;;;;6.72;4.80;;;18.20;42.10;17.20;101925.00;;;;5062803;28;20040;-65
2022/03/14 09:16:49;;;;;;;6.97;4.25;;;18.20;42.20;17.20;101939.00;;;;5057447;28;20033;-65
2022/03/14 09:19:35;;;;;;;4.78;4.05;;;18.20;42.20;17.20;101946.00;;;;5066398;28;20073;-66
2022/03/14 09:22:22;;;;;;;6.25;4.30;;;18.20;42.20;17.20;101938.00;;;;5058641;28;20154;-65
2022/03/14 09:25:09;;;;;;;6.85;4.68;;;18.20;42.30;17.20;101954.00;;;;5061873;28;20128;-65
2022/03/14 09:27:55;;;;;;;6.45;4.22;;;18.20;42.40;17.20;101952.00;;;;5064497;28;20039;-65
2022/03/14 09:30:43;;;;;;;5.00;3.90;;;18.20;42.40;17.20;101941.00;;;;5044175;28;20099;-65
2022/03/14 09:33:29;;;;;;;4.38;3.80;;;18.20;42.50;17.20;101953.00;;;;5044136;28;20033;-65
2022/03/14 09:36:15;;;;;;;5.57;3.80;;;18.20;42.60;17.20;101951.00;;;;5042767;28;20111;-65
2022/03/14 09:39:01;;;;;;;4.80;3.60;;;18.20;42.70;17.20;101949.00;;;;5050527;28;20490;-66
2022/03/14 09:41:49;;;;;;;5.25;3.92;;;18.20;42.80;17.20;101951.00;;;;5061219;28;20097;-65
2022/03/14 09:44:35;;;;;;;4.80;3.90;;;18.20;42.90;17.20;101961.00;;;;5043785;28;20044;-65
2022/03/14 09:47:24;;;;;;;5.13;3.55;;;18.10;43.10;17.20;101959.00;;;;5038548;28;20395;-65
2022/03/14 09:50:35;;;;;;;5.22;3.50;;;18.20;43.10;17.20;101961.00;;;;5059146;28;20116;-66
2022/03/14 09:53:22;;;;;;;4.07;3.33;;;18.10;43.50;17.20;101961.00;;;;5059771;28;20071;-65
2022/03/14 09:56:08;;;;;;;3.60;3.30;;;18.10;43.20;17.20;101978.00;;;;5028146;28;20051;-65
2022/03/14 09:58:54;;;;;;;3.85;3.40;;;18.10;43.70;17.20;101966.00;;;;5026760;28;20280;-65
2022/03/14 10:01:41;;;;;;;4.25;3.42;;;18.10;43.40;17.20;101971.00;;;;5056667;28;20041;-65
2022/03/14 10:04:27;;;;;;;3.80;3.17;;;18.10;43.80;17.20;101980.00;;;;5043064;28;20053;-65
2022/03/14 10:07:13;;;;;;;4.88;3.70;;;18.10;43.70;17.20;101984.00;;;;5055833;28;20038;-65
2022/03/14 10:09:59;;;;;;;4.05;3.10;;;18.10;43.90;17.20;101991.00;;;;5056382;28;20044;-65
2022/03/14 10:12:52;;;;;;;4.18;3.22;;;18.10;44.00;17.20;101996.00;;;;5041646;28;20033;-65
2022/03/14 10:15:40;;;;;;;4.05;3.22;;;18.10;44.10;17.20;101995.00;;;;5058058;28;20111;-65
2022/03/14 10:18:26;;;;;;;3.25;2.78;;;18.10;44.20;17.20;101997.00;;;;5057069;28;20041;-65
2022/03/14 10:21:12;;;;;;;3.88;3.20;;;18.10;44.00;17.20;102004.00;;;;5058236;28;20502;-65
2022/03/14 10:24:04;;;;;;;3.65;3.30;;;18.10;44.20;17.20;102003.00;;;;5047032;28;20040;-65
2022/03/14 10:26:50;;;;;;;4.32;3.30;;;18.10;44.30;17.20;102011.00;;;;5038158;28;20136;-65
2022/03/14 10:29:36;;;;;;;5.10;3.42;;;18.10;44.30;17.20;102012.00;;;;5049273;28;20040;-65
2022/03/14 10:32:31;;;;;;;4.43;3.08;;;18.10;44.50;17.20;102011.00;;;;5032417;28;20116;-66
2022/03/14 10:35:22;;;;;;;4.10;3.22;;;18.00;44.40;17.10;102012.00;;;;5036459;28;20036;-65
2022/03/14 10:38:11;;;;;;;4.38;3.72;;;18.00;44.70;17.20;102010.00;;;;5055052;28;20470;-65
2022/03/14 10:40:57;;;;;;;4.20;3.80;;;18.10;44.90;17.10;102012.00;;;;5043336;28;20051;-65
2022/03/14 10:43:43;;;;;;;4.18;3.38;;;18.00;44.90;17.10;102017.00;;;;5040521;28;20052;-65
2022/03/14 10:46:29;;;;;;;4.75;4.00;;;17.90;45.00;17.10;102031.00;;;;5062179;28;20037;-65
2022/03/14 10:49:17;;;;;;;5.10;4.20;;;18.00;45.20;17.10;102031.00;;;;5064864;28;20036;-65
2022/03/14 10:52:06;;;;;;;4.50;3.47;;;18.00;45.30;17.10;102035.00;;;;5056037;28;20533;-65
2022/03/14 10:54:52;;;;;;;5.80;4.20;;;18.00;45.40;17.10;102037.00;;;;5061324;28;20124;-65
2022/03/14 10:57:38;;;;;;;6.00;3.67;;;18.00;45.40;17.10;102030.00;;;;5055995;28;20052;-65
2022/03/14 11:00:24;;;;;;;5.43;3.75;;;18.00;45.20;17.10;102031.00;;;;5048078;28;20506;-66
2022/03/14 11:03:10;;;;;;;5.18;4.00;;;18.00;45.50;17.10;102040.00;;;;5045262;28;20040;-65
2022/03/14 11:05:59;;;;;;;4.72;4.10;;;17.90;45.40;17.10;102040.00;;;;5052610;28;20033;-66
2022/03/14 11:08:47;;;;;;;4.60;4.10;;;17.90;45.70;17.10;102046.00;;;;5046493;28;20039;-66
2022/03/14 11:11:36;;;;;;;4.95;3.75;;;17.90;45.60;17.10;102051.00;;;;5059540;28;20071;-65
2022/03/14 11:14:27;;;;;;;5.20;3.90;;;17.90;45.60;17.10;102061.00;;;;5061471;28;20029;-66
2022/03/14 11:17:25;;;;;;;4.97;3.50;;;17.90;45.50;17.10;102062.00;;;;5046603;28;20051;-66
2022/03/14 11:20:11;;;;;;;6.25;4.53;;;17.90;45.30;17.10;102054.00;;;;5042221;28;20387;-65
2022/03/14 11:22:57;;;;;;;7.30;4.07;;;17.90;45.60;17.10;102054.00;;;;5042740;28;20107;-65
2022/03/14 11:25:46;;;;;;;7.07;4.28;;;17.90;45.70;17.10;102054.00;;;;5053979;28;20047;-66
2022/03/14 11:28:36;;;;;;;5.47;3.92;;;17.90;45.60;17.10;102067.00;;;;5061260;28;20498;-65
2022/03/14 11:31:22;;;;;;;5.78;3.72;;;17.90;45.60;17.10;102076.00;;;;5059068;28;20115;-65
2022/03/14 11:34:08;;;;;;;8.18;4.18;;;18.00;45.70;17.10;102065.00;;;;5052515;28;20099;-65
2022/03/14 11:36:54;;;;;;;5.60;3.75;;;17.90;45.60;17.10;102076.00;;;;5049863;28;20040;-65
2022/03/14 11:39:41;;;;;;;4.20;3.50;;;17.90;45.60;17.10;102073.00;;;;5064704;28;20032;-65
2022/03/14 11:42:27;;;;;;;6.88;4.55;;;17.90;45.60;17.10;102073.00;;;;5059703;28;20102;-65
2022/03/14 11:45:13;;;;;;;5.53;4.15;;;17.90;45.70;17.10;102075.00;;;;5045479;28;20045;-65
2022/03/14 11:48:00;;;;;;;4.97;3.63;;;18.00;45.70;17.10;102073.00;;;;5038961;28;20119;-65
2022/03/14 11:50:59;;;;;;;5.45;3.50;;;18.00;45.50;17.10;102067.00;;;;5041290;28;20033;-65
2022/03/14 11:53:49;;;;;;;5.57;3.70;;;18.00;45.70;17.10;102074.00;;;;5028620;28;20044;-65
2022/03/14 11:56:39;;;;;;;6.38;3.47;;;18.00;45.70;17.10;102070.00;;;;5066917;28;20119;-65
2022/03/14 11:59:30;;;;;;;5.68;3.38;;;18.00;45.60;17.10;102075.00;;;;5053639;28;20067;-65
2022/03/14 12:02:16;;;;;;;4.55;3.50;;;18.00;45.40;17.10;102077.00;;;;5059665;28;20115;-65
2022/03/14 12:05:02;;;;;;;5.90;4.43;;;18.00;45.30;17.10;102077.00;;;;5018980;28;20154;-65
2022/03/14 12:07:48;;;;;;;7.13;4.50;;;18.00;45.60;17.10;102060.00;;;;5056069;28;20395;-65
2022/03/14 12:10:35;;;;;;;7.13;3.90;;;18.00;45.70;17.10;102065.00;;;;5038414;28;20371;-65
2022/03/14 12:13:41;;;;;;;5.43;3.75;;;18.00;45.40;17.10;102065.00;;;;5070782;28;20395;-65